createdAt,value
2018-11-13T00:00:28.529Z,92.26
2018-11-13T00:02:58.286Z,91.82
2018-11-13T00:05:27.242Z,92.79
2018-11-13T00:07:55.905Z,92.77
2018-11-13T00:10:24.677Z,93.14
2018-11-13T00:12:53.437Z,93.25
2018-11-13T00:15:22.874Z,92.52
2018-11-13T00:17:51.719Z,91.96
2018-11-13T00:20:20.569Z,92.61
2018-11-13T00:22:49.140Z,92.77
2018-11-13T00:25:18.755Z,91.95
2018-11-13T00:27:47.333Z,92.01
2018-11-13T00:30:20.533Z,92.31
2018-11-13T00:32:49.348Z,92.26
2018-11-13T00:35:19.010Z,91.58
2018-11-13T00:37:48.312Z,92.06
2018-11-13T00:40:18.535Z,91.83
2018-11-13T00:42:47.805Z,92.45
2018-11-13T00:45:16.551Z,92.94
2018-11-13T00:47:45.637Z,93.60
2018-11-13T00:50:18.116Z,93.13
2018-11-13T00:52:47.164Z,94.34
2018-11-13T00:55:16.058Z,94.29
2018-11-13T00:57:44.690Z,94.56
2018-11-13T01:00:16.142Z,94.24
2018-11-13T01:02:45.254Z,93.67
2018-11-13T01:05:15.957Z,92.70
2018-11-13T01:07:45.904Z,92.96
2018-11-13T01:10:15.870Z,92.14
2018-11-13T01:12:45.508Z,92.24
2018-11-13T01:15:17.609Z,91.71
2018-11-13T01:17:48.813Z,91.46
2018-11-13T01:20:18.056Z,90.70
2018-11-13T01:22:46.785Z,89.83
2018-11-13T01:25:16.234Z,89.41
2018-11-13T01:27:45.352Z,90.07
2018-11-13T01:30:14.737Z,89.83
2018-11-13T01:32:44.061Z,89.52
2018-11-13T01:35:14.013Z,89.97
2018-11-13T01:37:42.616Z,89.20
2018-11-13T01:40:13.225Z,88.53
2018-11-13T01:42:42.529Z,88.52
2018-11-13T01:45:12.275Z,88.54
2018-11-13T01:47:40.889Z,88.09
2018-11-13T01:50:10.113Z,88.54
2018-11-13T01:52:38.765Z,88.81
2018-11-13T01:55:09.003Z,88.71
2018-11-13T01:57:37.836Z,88.57
2018-11-13T02:00:14.450Z,88.31
2018-11-13T02:02:43.268Z,88.78
2018-11-13T02:05:11.803Z,88.97
2018-11-13T02:07:40.595Z,89.86
2018-11-13T02:10:09.527Z,89.65
2018-11-13T02:12:38.154Z,89.21
2018-11-13T02:15:07.293Z,89.58
2018-11-13T02:17:35.975Z,88.46
2018-11-13T02:20:05.662Z,88.89
2018-11-13T02:22:34.616Z,88.91
2018-11-13T02:25:03.372Z,88.90
2018-11-13T02:27:32.037Z,88.21
2018-11-13T02:30:00.598Z,87.84
2018-11-13T02:32:29.241Z,88.13
2018-11-13T02:34:57.877Z,87.41
2018-11-13T02:37:26.598Z,87.54
2018-11-13T02:39:55.161Z,87.44
2018-11-13T02:42:23.739Z,87.67
2018-11-13T02:44:52.390Z,86.69
2018-11-13T02:47:21.374Z,87.38
2018-11-13T02:49:51.312Z,86.99
2018-11-13T02:52:19.913Z,87.83
2018-11-13T02:54:48.728Z,87.06
2018-11-13T02:57:17.765Z,87.90
2018-11-13T02:59:46.361Z,87.60
2018-11-13T03:02:15.311Z,87.93
2018-11-13T03:04:43.923Z,87.54
2018-11-13T03:07:12.508Z,88.70
2018-11-13T03:09:41.070Z,88.01
2018-11-13T03:12:09.597Z,88.80
2018-11-13T03:14:38.194Z,89.00
2018-11-13T03:17:06.862Z,89.61
2018-11-13T03:19:35.466Z,88.97
2018-11-13T03:22:04.022Z,89.37
2018-11-13T03:24:32.669Z,89.07
2018-11-13T03:27:01.182Z,89.03
2018-11-13T03:29:30.343Z,89.63
2018-11-13T03:32:05.827Z,89.63
2018-11-13T03:34:34.409Z,89.21
2018-11-13T03:37:02.969Z,88.75
2018-11-13T03:39:31.674Z,88.37
2018-11-13T03:42:00.615Z,88.29
2018-11-13T03:44:29.609Z,89.13
2018-11-13T03:46:58.918Z,89.49
2018-11-13T03:49:27.500Z,89.74
2018-11-13T03:51:56.034Z,89.82
2018-11-13T03:54:24.769Z,89.57
2018-11-13T03:56:53.550Z,89.50
2018-11-13T03:59:22.178Z,89.38
2018-11-13T04:01:50.887Z,89.13
2018-11-13T04:04:19.515Z,88.79
2018-11-13T04:06:48.076Z,89.29
2018-11-13T04:09:16.674Z,89.36
2018-11-13T04:11:45.260Z,88.83
2018-11-13T04:14:13.845Z,89.92
2018-11-13T04:16:42.455Z,89.57
2018-11-13T04:19:11.039Z,91.04
2018-11-13T04:21:39.849Z,90.26
2018-11-13T04:24:08.433Z,91.06
2018-11-13T04:26:37.006Z,90.67
2018-11-13T04:29:06.005Z,90.68
2018-11-13T04:31:34.710Z,92.02
2018-11-13T04:34:03.291Z,92.24
2018-11-13T04:36:31.958Z,92.69
2018-11-13T04:39:00.533Z,92.85
2018-11-13T04:41:29.184Z,92.22
2018-11-13T04:43:57.909Z,93.33
2018-11-13T04:46:26.486Z,93.52
2018-11-13T04:48:59.127Z,93.86
2018-11-13T04:51:27.701Z,93.46
2018-11-13T04:53:56.432Z,93.76
2018-11-13T04:56:25.167Z,94.81
2018-11-13T04:58:53.872Z,94.49
2018-11-13T05:01:22.431Z,94.68
2018-11-13T05:03:51.001Z,94.34
2018-11-13T05:06:19.599Z,93.95
2018-11-13T05:08:48.149Z,94.52
2018-11-13T05:11:16.689Z,94.10
2018-11-13T05:13:45.347Z,94.07
2018-11-13T05:16:13.982Z,94.89
2018-11-13T05:18:42.565Z,94.95
2018-11-13T05:21:11.178Z,95.37
2018-11-13T05:23:39.822Z,94.86
2018-11-13T05:26:08.436Z,94.62
2018-11-13T05:28:37.096Z,94.44
2018-11-13T05:31:07.434Z,94.69
2018-11-13T05:33:35.997Z,94.78
2018-11-13T05:36:04.567Z,93.99
2018-11-13T05:38:33.128Z,94.91
2018-11-13T05:41:01.719Z,94.84
2018-11-13T05:43:30.324Z,94.08
2018-11-13T05:45:59.106Z,94.27
2018-11-13T05:48:27.666Z,93.08
2018-11-13T05:50:56.513Z,93.02
2018-11-13T05:53:25.434Z,92.46
2018-11-13T05:55:53.946Z,92.81
2018-11-13T05:58:23.142Z,92.82
2018-11-13T06:00:51.733Z,93.86
2018-11-13T06:03:20.291Z,93.89
2018-11-13T06:05:48.986Z,93.27
2018-11-13T06:08:19.287Z,92.82
2018-11-13T06:10:48.273Z,92.54
2018-11-13T06:13:16.833Z,92.58
2018-11-13T06:15:45.393Z,92.05
2018-11-13T06:18:14.041Z,91.50
2018-11-13T06:20:42.963Z,91.72
2018-11-13T06:23:11.732Z,91.31
2018-11-13T06:25:40.532Z,91.54
2018-11-13T06:28:09.492Z,91.82
2018-11-13T06:30:38.297Z,91.27
2018-11-13T06:33:07.219Z,90.85
2018-11-13T06:35:35.846Z,89.95
2018-11-13T06:38:04.486Z,89.74
2018-11-13T06:40:33.038Z,89.80
2018-11-13T06:43:01.638Z,89.78
2018-11-13T06:45:30.265Z,89.01
2018-11-13T06:47:58.994Z,89.27
2018-11-13T06:50:27.825Z,88.41
2018-11-13T06:52:56.545Z,88.42
2018-11-13T06:55:29.027Z,87.39
2018-11-13T06:57:58.000Z,86.19
2018-11-13T07:00:26.749Z,86.16
2018-11-13T07:02:55.590Z,85.55
2018-11-13T07:05:24.273Z,84.82
2018-11-13T07:07:52.901Z,84.85
2018-11-13T07:10:22.858Z,83.63
2018-11-13T07:12:52.061Z,83.49
2018-11-13T07:15:23.003Z,83.53
2018-11-13T07:17:52.924Z,83.41
2018-11-13T07:20:22.685Z,83.19
2018-11-13T07:22:51.409Z,83.27
2018-11-13T07:25:20.260Z,82.74
2018-11-13T07:27:49.112Z,81.67
2018-11-13T07:30:18.900Z,81.80
2018-11-13T07:32:49.533Z,81.46
2018-11-13T07:35:19.084Z,80.92
2018-11-13T07:37:49.459Z,80.69
2018-11-13T07:40:18.181Z,79.51
2018-11-13T07:42:46.762Z,77.87
2018-11-13T07:45:16.018Z,77.35
2018-11-13T07:47:45.856Z,77.56
2018-11-13T07:50:14.885Z,76.78
2018-11-13T07:52:43.441Z,76.16
2018-11-13T07:55:12.962Z,76.01
2018-11-13T07:57:41.550Z,75.52
2018-11-13T08:00:20.089Z,75.32
2018-11-13T08:02:50.929Z,75.11
2018-11-13T08:05:19.558Z,74.06
2018-11-13T08:07:48.217Z,74.94
2018-11-13T08:10:16.938Z,74.64
2018-11-13T08:12:45.628Z,72.97
2018-11-13T08:15:15.663Z,72.43
2018-11-13T08:17:44.290Z,72.22
2018-11-13T08:20:14.389Z,73.10
2018-11-13T08:22:43.602Z,72.17
2018-11-13T08:25:12.620Z,72.77
2018-11-13T08:27:41.925Z,71.58
2018-11-13T08:30:13.305Z,72.04
2018-11-13T08:32:42.228Z,70.63
2018-11-13T08:35:10.803Z,71.67
2018-11-13T08:37:39.625Z,70.87
2018-11-13T08:40:11.045Z,70.57
2018-11-13T08:42:39.645Z,70.85
2018-11-13T08:45:08.962Z,69.71
2018-11-13T08:47:37.623Z,69.49
2018-11-13T08:50:06.720Z,69.73
2018-11-13T08:52:35.454Z,69.62
2018-11-13T08:55:04.573Z,69.76
2018-11-13T08:57:33.541Z,69.42
2018-11-13T09:00:02.364Z,69.36
2018-11-13T09:02:30.880Z,69.51
2018-11-13T09:04:59.553Z,69.70
2018-11-13T09:07:28.315Z,68.62
2018-11-13T09:09:56.843Z,69.26
2018-11-13T09:12:25.521Z,68.26
2018-11-13T09:14:54.277Z,69.04
2018-11-13T09:17:22.822Z,68.76
2018-11-13T09:19:51.338Z,69.22
2018-11-13T09:22:19.931Z,69.21
2018-11-13T09:24:48.626Z,69.41
2018-11-13T09:27:17.178Z,70.28
2018-11-13T09:29:45.839Z,70.55
2018-11-13T09:32:14.538Z,70.13
2018-11-13T09:34:45.099Z,70.04
2018-11-13T09:37:13.885Z,70.19
2018-11-13T09:39:42.749Z,69.51
2018-11-13T09:42:11.391Z,69.61
2018-11-13T09:44:40.074Z,69.39
2018-11-13T09:47:08.823Z,69.10
2018-11-13T09:49:37.463Z,69.07
2018-11-13T09:52:06.553Z,69.19
2018-11-13T09:54:35.103Z,68.64
2018-11-13T09:57:03.631Z,68.00
2018-11-13T09:59:32.400Z,67.87
2018-11-13T10:02:01.559Z,67.80
2018-11-13T10:04:30.490Z,67.97
2018-11-13T10:06:59.277Z,68.02
2018-11-13T10:09:28.101Z,67.72
2018-11-13T10:11:56.653Z,67.25
2018-11-13T10:14:25.249Z,67.61
2018-11-13T10:16:53.794Z,67.31
2018-11-13T10:19:22.358Z,67.02
2018-11-13T10:21:51.010Z,67.11
2018-11-13T10:24:19.606Z,66.06
2018-11-13T10:26:48.388Z,65.97
2018-11-13T10:29:16.992Z,65.97
2018-11-13T10:31:45.533Z,65.84
2018-11-13T10:34:14.078Z,66.42
2018-11-13T10:36:42.959Z,66.35
2018-11-13T10:39:12.238Z,65.79
2018-11-13T10:41:40.836Z,66.01
2018-11-13T10:44:09.487Z,65.63
2018-11-13T10:46:39.124Z,65.86
2018-11-13T10:49:07.911Z,65.61
2018-11-13T10:51:36.685Z,65.89
2018-11-13T10:54:07.315Z,65.95
2018-11-13T10:56:35.948Z,65.58
2018-11-13T10:59:04.624Z,65.82
2018-11-13T11:01:38.470Z,66.10
2018-11-13T11:04:12.392Z,64.99
2018-11-13T11:06:40.975Z,65.01
2018-11-13T11:09:10.337Z,64.50
2018-11-13T11:11:40.901Z,64.46
2018-11-13T11:14:11.538Z,65.50
2018-11-13T11:16:40.067Z,65.04
2018-11-13T11:19:08.752Z,65.65
2018-11-13T11:21:37.609Z,65.15
2018-11-13T11:24:06.311Z,64.88
2018-11-13T11:26:35.462Z,64.28
2018-11-13T11:29:04.077Z,63.65
2018-11-13T11:31:32.643Z,63.55
2018-11-13T11:34:01.236Z,63.63
2018-11-13T11:36:29.810Z,63.76
2018-11-13T11:38:58.743Z,64.03
2018-11-13T11:41:27.327Z,64.34
2018-11-13T11:43:55.871Z,64.34
2018-11-13T11:46:24.450Z,64.25
2018-11-13T11:48:53.078Z,63.65
2018-11-13T11:51:21.644Z,64.38
2018-11-13T11:53:50.231Z,64.15
2018-11-13T11:56:18.971Z,64.12
2018-11-13T11:58:47.509Z,64.42
2018-11-13T12:01:16.103Z,65.32
2018-11-13T12:03:44.673Z,64.89
2018-11-13T12:06:13.377Z,64.73
2018-11-13T12:08:41.941Z,64.68
2018-11-13T12:11:10.520Z,64.69
2018-11-13T12:13:39.161Z,64.59
2018-11-13T12:16:07.733Z,64.08
2018-11-13T12:18:36.326Z,65.08
2018-11-13T12:21:04.989Z,65.42
2018-11-13T12:23:33.561Z,64.99
2018-11-13T12:26:02.152Z,65.72
2018-11-13T12:28:30.746Z,65.66
2018-11-13T12:30:59.628Z,65.98
2018-11-13T12:33:28.183Z,66.12
2018-11-13T12:35:56.764Z,66.79
2018-11-13T12:38:25.396Z,66.29
2018-11-13T12:40:54.131Z,67.06
2018-11-13T12:43:22.955Z,67.70
2018-11-13T12:45:51.482Z,68.66
2018-11-13T12:48:20.160Z,68.94
2018-11-13T12:50:53.978Z,68.52
2018-11-13T12:53:22.562Z,69.39
2018-11-13T12:55:51.180Z,68.61
2018-11-13T12:58:19.869Z,69.82
2018-11-13T13:00:48.485Z,69.60
2018-11-13T13:03:17.050Z,70.60
2018-11-13T13:05:45.637Z,69.30
2018-11-13T13:08:14.250Z,69.65
2018-11-13T13:10:42.766Z,70.18
2018-11-13T13:13:11.314Z,70.42
2018-11-13T13:15:40.024Z,70.12
2018-11-13T13:18:08.577Z,71.03
2018-11-13T13:20:37.150Z,71.17
2018-11-13T13:23:06.130Z,71.14
2018-11-13T13:25:34.683Z,71.82
2018-11-13T13:28:03.312Z,72.10
2018-11-13T13:30:31.933Z,72.34
2018-11-13T13:33:00.481Z,72.06
2018-11-13T13:35:39.317Z,72.38
2018-11-13T13:38:08.782Z,72.60
2018-11-13T13:40:38.301Z,73.04
2018-11-13T13:43:07.402Z,73.71
2018-11-13T13:45:36.024Z,74.11
2018-11-13T13:48:04.766Z,74.46
2018-11-13T13:50:33.354Z,75.24
2018-11-13T13:53:01.905Z,75.65
2018-11-13T13:55:30.542Z,76.02
2018-11-13T13:57:59.862Z,76.93
2018-11-13T14:00:30.098Z,78.17
2018-11-13T14:02:58.897Z,78.45
2018-11-13T14:05:27.675Z,78.41
2018-11-13T14:07:56.364Z,77.46
2018-11-13T14:10:24.905Z,76.66
2018-11-13T14:12:53.690Z,76.45
2018-11-13T14:15:22.254Z,75.80
2018-11-13T14:17:51.827Z,75.26
2018-11-13T14:20:21.239Z,75.47
2018-11-13T14:22:50.437Z,75.29
2018-11-13T14:25:19.414Z,74.80
2018-11-13T14:27:48.558Z,75.41
2018-11-13T14:30:20.794Z,75.15
2018-11-13T14:32:50.209Z,76.00
2018-11-13T14:35:19.177Z,76.87
2018-11-13T14:37:48.322Z,77.18
2018-11-13T14:40:21.561Z,77.97
2018-11-13T14:42:50.428Z,77.64
2018-11-13T14:45:20.446Z,79.77
2018-11-13T14:47:49.804Z,80.12
2018-11-13T14:50:19.621Z,80.35
2018-11-13T14:52:48.806Z,81.73
2018-11-13T14:55:19.959Z,82.44
2018-11-13T14:57:48.842Z,83.26
2018-11-13T15:00:20.095Z,83.16
2018-11-13T15:02:49.800Z,83.69
2018-11-13T15:05:19.630Z,84.60
2018-11-13T15:07:49.481Z,85.35
2018-11-13T15:10:20.920Z,85.94
2018-11-13T15:12:49.463Z,86.20
2018-11-13T15:15:18.138Z,86.63
2018-11-13T15:17:46.837Z,85.94
2018-11-13T15:20:16.450Z,86.25
2018-11-13T15:22:45.584Z,86.62
2018-11-13T15:25:15.350Z,87.46
2018-11-13T15:27:44.867Z,87.39
2018-11-13T15:30:19.419Z,87.96
2018-11-13T15:32:51.662Z,87.16
2018-11-13T15:35:20.284Z,87.00
2018-11-13T15:37:48.823Z,87.17
2018-11-13T16:06:10.175Z,88.98
2018-11-13T16:25:58.661Z,90.73
2018-11-13T16:28:27.457Z,90.39
2018-11-13T16:30:56.341Z,90.52
2018-11-13T16:33:24.955Z,91.14
2018-11-13T16:35:53.569Z,90.41
2018-11-13T16:38:22.660Z,91.19
2018-11-13T16:40:51.253Z,91.19
2018-11-13T16:43:19.931Z,90.38
2018-11-13T16:45:48.662Z,90.81
2018-11-13T16:48:17.292Z,90.52
2018-11-13T16:50:46.198Z,90.63
2018-11-13T16:53:14.822Z,90.17
2018-11-13T16:55:48.808Z,91.05
2018-11-13T16:58:17.569Z,90.58
2018-11-13T17:00:46.650Z,90.77
2018-11-13T17:03:15.291Z,91.75
2018-11-13T17:05:43.879Z,91.25
2018-11-13T17:08:12.606Z,91.32
2018-11-13T17:10:42.395Z,91.85
2018-11-13T17:13:11.166Z,92.25
2018-11-13T17:15:39.858Z,92.42
2018-11-13T17:18:08.569Z,91.81
2018-11-13T17:20:37.148Z,91.61
2018-11-13T17:23:06.093Z,92.05
2018-11-13T17:25:36.075Z,91.83
2018-11-13T17:28:04.758Z,91.19
2018-11-13T17:30:34.518Z,91.08
2018-11-13T17:33:04.717Z,91.71
2018-11-13T17:35:33.630Z,90.90
2018-11-13T17:38:02.710Z,91.35
2018-11-13T17:40:33.042Z,90.98
2018-11-13T17:43:02.967Z,91.38
2018-11-13T17:45:32.830Z,91.27
2018-11-13T17:48:01.419Z,90.50
2018-11-13T17:50:33.088Z,90.26
2018-11-13T17:53:01.779Z,90.72
2018-11-13T17:55:30.403Z,90.92
2018-11-13T17:58:00.423Z,90.31
2018-11-13T18:00:32.377Z,90.88
2018-11-13T18:03:01.643Z,91.41
2018-11-13T18:05:30.681Z,91.44
2018-11-13T18:08:00.954Z,91.26
2018-11-13T18:10:30.381Z,90.86
2018-11-13T18:12:58.977Z,91.00
2018-11-13T18:15:28.570Z,91.64
2018-11-13T18:17:57.186Z,91.98
2018-11-13T18:20:27.926Z,91.93
2018-11-13T18:22:56.522Z,91.78
2018-11-13T18:25:25.414Z,92.30
2018-11-13T18:27:55.537Z,91.57
2018-11-13T18:30:25.649Z,91.50
2018-11-13T18:32:54.506Z,91.92
2018-11-13T18:35:24.398Z,91.35
2018-11-13T18:37:54.154Z,91.99
2018-11-13T18:40:23.403Z,92.40
2018-11-13T18:42:52.725Z,91.82
2018-11-13T18:45:24.951Z,92.34
2018-11-13T18:47:53.872Z,92.02
2018-11-13T18:50:27.081Z,92.14
2018-11-13T18:52:55.948Z,91.75
2018-11-13T18:55:24.844Z,92.34
2018-11-13T18:57:53.595Z,92.40
2018-11-13T19:00:27.270Z,92.34
2018-11-13T19:02:56.542Z,92.26
2018-11-13T19:05:26.425Z,91.82
2018-11-13T19:07:55.073Z,92.56
2018-11-13T19:10:33.198Z,91.75
2018-11-13T19:13:03.415Z,92.28
2018-11-13T19:15:34.193Z,92.45
2018-11-13T19:18:03.484Z,92.01
2018-11-13T19:20:33.236Z,92.33
2018-11-13T19:23:02.633Z,92.33
2018-11-13T19:25:33.662Z,93.00
2018-11-13T19:28:03.733Z,92.65
2018-11-13T19:30:32.995Z,93.16
2018-11-13T19:33:02.860Z,93.08
2018-11-13T19:35:33.546Z,92.31
2018-11-13T19:38:03.886Z,93.34
2018-11-13T19:40:35.111Z,92.62
2018-11-13T19:43:07.315Z,92.57
2018-11-13T19:45:37.912Z,92.70
2018-11-13T19:48:08.406Z,93.02
2018-11-13T19:50:38.902Z,93.36
2018-11-13T19:53:09.174Z,93.32
2018-11-13T19:55:39.799Z,93.35
2018-11-13T19:58:10.217Z,92.82
2018-11-13T20:00:40.889Z,93.04
2018-11-13T20:03:12.442Z,93.97
2018-11-13T20:05:42.322Z,93.91
2018-11-13T20:08:12.382Z,94.02
2018-11-13T20:10:42.584Z,93.21
2018-11-13T20:13:13.040Z,92.81
2018-11-13T20:15:42.812Z,92.35
2018-11-13T20:18:12.374Z,92.61
2018-11-13T20:20:42.141Z,91.50
2018-11-13T20:23:12.031Z,91.47
2018-11-13T20:25:41.551Z,91.94
2018-11-13T20:28:10.905Z,91.34
2018-11-13T20:30:41.188Z,91.47
2018-11-13T20:33:10.662Z,90.79
2018-11-13T20:35:39.692Z,90.83
2018-11-13T20:38:08.672Z,91.41
2018-11-13T20:40:37.995Z,91.38
2018-11-13T20:43:08.809Z,90.98
2018-11-13T20:45:37.493Z,91.85
2018-11-13T20:48:06.532Z,91.82
2018-11-13T20:50:35.561Z,91.02
2018-11-13T20:53:04.157Z,91.36
2018-11-13T20:55:32.726Z,90.99
2018-11-13T20:58:01.385Z,91.55
2018-11-13T21:00:31.239Z,90.83
2018-11-13T21:03:00.059Z,91.19
2018-11-13T21:05:28.684Z,91.75
2018-11-13T21:07:57.333Z,90.86
2018-11-13T21:10:31.778Z,90.68
2018-11-13T21:13:01.878Z,91.17
2018-11-13T21:15:30.453Z,91.15
2018-11-13T21:17:59.050Z,91.15
2018-11-13T21:20:27.771Z,91.37
2018-11-13T21:22:56.596Z,91.39
2018-11-13T21:25:26.290Z,90.17
2018-11-13T21:27:57.318Z,89.14
2018-11-13T21:30:25.932Z,90.16
2018-11-13T21:32:54.890Z,90.14
2018-11-13T21:35:23.448Z,89.58
2018-11-13T21:37:55.282Z,90.27
2018-11-13T21:40:25.046Z,90.52
2018-11-13T21:42:54.286Z,90.50
2018-11-13T21:45:23.909Z,90.41
2018-11-13T21:47:52.533Z,90.33
2018-11-13T21:50:22.461Z,89.32
2018-11-13T21:52:51.030Z,89.37
2018-11-13T21:55:20.681Z,88.37
2018-11-13T21:57:49.734Z,88.46
2018-11-13T22:00:20.632Z,88.71
2018-11-13T22:02:53.233Z,88.25
2018-11-13T22:05:22.593Z,88.21
2018-11-13T22:07:51.129Z,88.02
2018-11-13T22:10:19.653Z,86.95
2018-11-13T22:12:48.254Z,87.34
2018-11-13T22:15:19.116Z,86.86
2018-11-13T22:17:47.657Z,87.20
2018-11-13T22:20:17.210Z,86.74
2018-11-13T22:22:45.931Z,86.71
2018-11-13T22:25:16.724Z,86.73
2018-11-13T22:27:46.641Z,86.58
2018-11-13T22:30:17.511Z,85.66
2018-11-13T22:32:46.590Z,86.46
2018-11-13T22:35:15.722Z,86.00
2018-11-13T22:37:44.400Z,85.90
2018-11-13T22:40:15.110Z,85.98
2018-11-13T22:42:43.733Z,86.03
2018-11-13T22:45:14.359Z,86.41
2018-11-13T22:47:43.221Z,86.15
2018-11-13T22:50:15.773Z,85.88
2018-11-13T22:52:44.793Z,86.78
2018-11-13T22:55:14.307Z,86.92
2018-11-13T22:57:43.923Z,86.56
2018-11-13T23:00:18.314Z,86.87
2018-11-13T23:02:54.208Z,87.65
2018-11-13T23:05:22.754Z,87.17
2018-11-13T23:07:51.265Z,88.24
2018-11-13T23:10:19.854Z,88.23
2018-11-13T23:12:48.447Z,87.93
2018-11-13T23:15:19.364Z,87.65
2018-11-13T23:17:47.978Z,88.08
2018-11-13T23:20:17.914Z,88.52
2018-11-13T23:22:46.438Z,88.02
2018-11-13T23:25:16.144Z,88.52
2018-11-13T23:27:45.652Z,87.51
2018-11-13T23:30:17.667Z,87.44
2018-11-13T23:32:46.625Z,87.60
2018-11-13T23:35:15.712Z,87.37
2018-11-13T23:37:45.347Z,87.20
2018-11-13T23:40:15.325Z,87.14
2018-11-13T23:42:48.747Z,87.52
2018-11-13T23:45:18.266Z,87.55
2018-11-13T23:47:47.213Z,88.09
2018-11-13T23:50:15.850Z,87.83
2018-11-13T23:52:45.011Z,88.14
2018-11-13T23:55:14.227Z,87.71
2018-11-13T23:57:43.336Z,88.57
